Time;durP1;ratioP1;P1;durP2;ratioP2;P2;SDS_P1;SDS_P2;PMS_P1;PMS_P2;Temp;Humidity;BMP_temperature;BMP_pressure;BME280_temperature;BME280_humidity;BME280_pressure;Samples;Min_cycle;Max_cycle;Signal;HPM_P1;HPM_P2
2021/03/27 00:01:20;;;;;;;84.53;42.45;;;4.00;99.90;;;;;;4979136;28;20041;-64
2021/03/27 00:03:56;;;;;;;67.68;41.65;;;4.00;99.90;;;;;;4977365;28;20396;-66
2021/03/27 00:06:35;;;;;;;72.50;37.03;;;3.90;99.90;;;;;;4980473;28;20047;-64
2021/03/27 00:09:19;;;;;;;68.88;40.95;;;3.90;99.90;;;;;;4980055;28;20526;-65
2021/03/27 00:12:04;;;;;;;69.97;38.78;;;3.90;99.90;;;;;;4980250;28;20424;-64
2021/03/27 00:14:43;;;;;;;74.50;38.03;;;3.80;99.90;;;;;;4979196;28;20413;-72
2021/03/27 00:17:57;;;;;;;68.18;39.10;;;3.80;99.90;;;;;;4980053;28;20058;-74
2021/03/27 00:20:43;;;;;;;74.32;38.05;;;3.80;99.90;;;;;;4978925;28;20733;-69
2021/03/27 00:23:27;;;;;;;67.45;38.22;;;3.80;99.90;;;;;;4976860;28;20165;-71
2021/03/27 00:26:00;;;;;;;81.32;38.95;;;3.80;99.90;;;;;;4978562;28;20789;-66
2021/03/27 00:28:35;;;;;;;81.47;41.90;;;3.80;99.90;;;;;;4978204;28;20054;-69
2021/03/27 00:31:16;;;;;;;64.25;35.17;;;3.70;99.90;;;;;;4978001;28;20043;-66
2021/03/27 00:33:49;;;;;;;74.10;39.72;;;3.70;99.90;;;;;;4978010;28;20054;-70
2021/03/27 00:36:22;;;;;;;67.68;36.78;;;3.70;99.90;;;;;;4979673;28;20151;-65
2021/03/27 00:39:03;;;;;;;70.95;40.17;;;3.70;99.90;;;;;;4975899;28;20050;-67
2021/03/27 00:41:36;;;;;;;78.28;40.55;;;3.60;99.90;;;;;;4978263;28;20046;-67
2021/03/27 00:44:07;;;;;;;72.90;40.53;;;3.60;99.90;;;;;;4977636;28;20417;-68
2021/03/27 00:46:35;;;;;;;68.90;36.38;;;3.60;99.90;;;;;;4980508;28;20062;-65
2021/03/27 00:49:09;;;;;;;70.50;38.28;;;3.60;99.90;;;;;;4980414;28;20065;-68
2021/03/27 00:51:38;;;;;;;58.95;34.45;;;3.60;99.90;;;;;;4992535;28;20567;-65
2021/03/27 00:54:30;;;;;;;73.50;39.60;;;3.60;99.90;;;;;;4990181;28;20153;-65
2021/03/27 00:57:07;;;;;;;66.43;37.25;;;3.60;99.90;;;;;;4978028;28;20108;-75
2021/03/27 00:59:38;;;;;;;73.13;40.35;;;3.60;99.90;;;;;;4979959;28;20146;-72
2021/03/27 01:02:16;;;;;;;77.13;39.40;;;3.60;99.90;;;;;;4992457;28;20544;-66
2021/03/27 01:05:07;;;;;;;60.00;36.28;;;3.60;99.90;;;;;;4974675;28;20389;-68
2021/03/27 01:08:09;;;;;;;68.47;37.80;;;3.50;99.90;;;;;;4957755;28;20051;-67
2021/03/27 01:11:01;;;;;;;62.88;36.33;;;3.50;99.90;;;;;;4978915;28;20068;-64
2021/03/27 01:13:38;;;;;;;72.53;36.38;;;3.50;99.90;;;;;;4978516;28;20046;-66
2021/03/27 01:16:13;;;;;;;57.90;34.40;;;3.50;99.90;;;;;;4972756;28;20057;-65
2021/03/27 01:18:51;;;;;;;69.53;36.58;;;3.50;99.90;;;;;;4979074;28;20077;-69
2021/03/27 01:21:40;;;;;;;64.80;37.72;;;3.40;99.90;;;;;;4979696;28;20084;-71
2021/03/27 01:24:15;;;;;;;65.88;34.25;;;3.40;99.90;;;;;;4975296;28;20058;-64
2021/03/27 01:27:03;;;;;;;59.60;33.17;;;3.40;99.90;;;;;;4978798;28;20389;-64
2021/03/27 01:29:42;;;;;;;59.08;32.97;;;3.50;99.90;;;;;;4979414;28;20042;-67
2021/03/27 01:32:17;;;;;;;60.95;31.10;;;3.50;99.90;;;;;;4976694;28;20124;-68
2021/03/27 01:34:53;;;;;;;63.88;34.80;;;3.50;99.90;;;;;;4975344;28;20138;-74
2021/03/27 01:37:26;;;;;;;59.58;30.63;;;3.50;99.90;;;;;;4978484;28;20112;-71
2021/03/27 01:40:25;;;;;;;48.80;27.08;;;3.50;99.90;;;;;;4978696;28;20756;-68
2021/03/27 01:43:08;;;;;;;54.78;27.38;;;3.50;99.90;;;;;;4975798;28;20105;-71
2021/03/27 01:45:40;;;;;;;54.22;30.85;;;3.50;99.90;;;;;;4978916;28;20128;-64
2021/03/27 01:48:27;;;;;;;62.83;31.95;;;3.60;99.90;;;;;;4978689;28;20507;-72
2021/03/27 01:51:00;;;;;;;58.95;28.65;;;3.60;99.90;;;;;;4978549;28;20612;-66
2021/03/27 01:53:36;;;;;;;55.55;27.35;;;3.60;99.90;;;;;;4977160;28;20093;-68
2021/03/27 01:56:40;;;;;;;47.90;26.15;;;3.60;99.90;;;;;;4977115;28;20124;-69
2021/03/27 01:59:26;;;;;;;53.00;28.98;;;3.60;99.90;;;;;;4979802;28;20046;-71
2021/03/27 02:02:06;;;;;;;46.78;23.45;;;3.70;99.90;;;;;;4977613;28;21085;-66
2021/03/27 02:05:07;;;;;;;51.80;27.13;;;3.70;99.90;;;;;;4975439;28;20063;-66
2021/03/27 02:07:48;;;;;;;47.70;25.58;;;3.70;99.90;;;;;;4966520;28;20424;-75
2021/03/27 02:10:33;;;;;;;45.97;25.30;;;3.70;99.90;;;;;;4976342;28;20109;-74
2021/03/27 02:13:11;;;;;;;44.92;23.80;;;3.70;99.90;;;;;;4979580;28;20050;-68
2021/03/27 02:15:56;;;;;;;46.35;24.95;;;3.70;99.90;;;;;;4977195;28;20429;-65
2021/03/27 02:18:27;;;;;;;58.50;27.23;;;3.70;99.90;;;;;;4977078;28;20488;-65
2021/03/27 02:20:53;;;;;;;;;;;3.60;99.90;;;;;;4976370;28;20107;-65
2021/03/27 02:23:57;;;;;;;47.35;26.25;;;3.60;99.90;;;;;;4976385;28;20321;-68
2021/03/27 02:26:57;;;;;;;54.53;27.90;;;3.50;99.90;;;;;;4975628;28;20145;-64
2021/03/27 02:29:38;;;;;;;48.70;28.02;;;3.60;99.90;;;;;;4978079;28;20053;-65
2021/03/27 02:32:13;;;;;;;51.45;27.20;;;3.50;99.90;;;;;;4974423;28;20038;-68
2021/03/27 02:34:53;;;;;;;54.40;32.22;;;3.50;99.90;;;;;;4979039;28;20152;-68
2021/03/27 02:37:28;;;;;;;48.45;27.65;;;3.50;99.90;;;;;;4976873;28;20050;-71
2021/03/27 02:40:12;;;;;;;51.92;29.10;;;3.50;99.90;;;;;;4975620;28;20437;-65
2021/03/27 02:42:50;;;;;;;46.72;25.45;;;3.40;99.90;;;;;;4976317;28;20046;-64
2021/03/27 02:46:04;;;;;;;47.25;23.75;;;3.40;99.90;;;;;;4979310;28;20062;-67
2021/03/27 02:48:42;;;;;;;54.22;29.15;;;3.30;99.90;;;;;;4972464;28;20128;-65
2021/03/27 02:51:30;;;;;;;53.80;26.92;;;3.40;99.90;;;;;;4982112;28;20050;-67
2021/03/27 02:54:10;;;;;;;49.70;28.50;;;3.30;99.90;;;;;;4976939;28;20074;-65
2021/03/27 02:56:55;;;;;;;;;;;3.40;99.90;;;;;;4980753;28;20444;-67
2021/03/27 02:59:25;;;;;;;55.45;28.55;;;3.40;99.90;;;;;;4978941;28;20430;-67
2021/03/27 03:02:16;;;;;;;53.90;29.75;;;3.50;99.90;;;;;;4983513;28;20400;-69
2021/03/27 03:04:58;;;;;;;59.28;32.42;;;3.40;99.90;;;;;;4980771;28;20058;-71
2021/03/27 03:07:52;;;;;;;57.42;31.25;;;3.40;99.90;;;;;;4983284;28;20400;-66
2021/03/27 03:11:03;;;;;;;53.78;28.90;;;3.40;99.90;;;;;;4976467;28;20058;-67
2021/03/27 03:13:32;;;;;;;;;;;3.40;99.90;;;;;;4981190;28;20495;-70
2021/03/27 03:16:16;;;;;;;48.45;27.35;;;3.50;99.90;;;;;;4979847;28;20399;-72
2021/03/27 03:18:42;;;;;;;52.00;26.08;;;3.40;99.90;;;;;;4979880;28;20094;-66
2021/03/27 03:21:51;;;;;;;48.83;26.77;;;3.40;99.90;;;;;;4981505;28;20125;-65
2021/03/27 03:24:46;;;;;;;50.30;27.80;;;3.40;99.90;;;;;;4960194;28;20135;-66
2021/03/27 03:27:15;;;;;;;49.17;26.30;;;3.40;99.90;;;;;;4980792;28;20073;-66
2021/03/27 03:29:50;;;;;;;54.53;28.83;;;3.40;99.90;;;;;;4980191;28;20763;-70
2021/03/27 03:32:26;;;;;;;50.63;27.85;;;3.30;99.90;;;;;;4977694;28;20447;-68
2021/03/27 03:35:18;;;;;;;52.72;30.77;;;3.30;99.90;;;;;;4983242;28;20050;-68
2021/03/27 03:38:08;;;;;;;46.13;25.55;;;3.30;99.90;;;;;;4980695;28;20050;-70
2021/03/27 03:40:50;;;;;;;;;;;3.20;99.90;;;;;;4977849;28;20053;-68
2021/03/27 03:43:24;;;;;;;53.55;27.85;;;3.20;99.90;;;;;;4981208;28;19930;-68
2021/03/27 03:45:54;;;;;;;54.67;30.27;;;3.10;99.90;;;;;;4978855;28;20530;-74
2021/03/27 03:48:48;;;;;;;52.33;27.88;;;3.10;99.90;;;;;;4977849;28;20463;-71
2021/03/27 03:51:50;;;;;;;52.35;28.95;;;3.10;99.90;;;;;;4982777;28;20050;-69
2021/03/27 03:54:34;;;;;;;54.90;29.45;;;3.10;99.90;;;;;;4975643;28;20484;-73
2021/03/27 03:57:12;;;;;;;57.67;28.65;;;3.10;99.90;;;;;;4977687;28;20050;-70
2021/03/27 03:59:50;;;;;;;56.45;28.75;;;3.00;99.90;;;;;;4979476;28;20516;-73
2021/03/27 04:02:19;;;;;;;47.45;25.60;;;3.00;99.90;;;;;;4978981;28;20104;-65
2021/03/27 04:04:59;;;;;;;45.60;27.05;;;3.00;99.90;;;;;;4978543;28;20085;-68
2021/03/27 04:07:33;;;;;;;46.92;27.38;;;3.00;99.90;;;;;;4977453;28;20050;-66
2021/03/27 04:10:11;;;;;;;42.15;23.88;;;3.00;99.90;;;;;;4976672;28;20061;-68
2021/03/27 04:12:43;;;;;;;42.83;23.85;;;3.00;99.90;;;;;;4980792;28;20081;-69
2021/03/27 04:15:15;;;;;;;40.22;24.67;;;3.00;99.90;;;;;;4979093;28;20084;-69
2021/03/27 04:17:58;;;;;;;42.00;24.40;;;3.00;99.90;;;;;;4979099;28;20062;-66
2021/03/27 04:20:32;;;;;;;43.88;25.50;;;3.00;99.90;;;;;;4979356;28;20046;-71
2021/03/27 04:23:24;;;;;;;36.42;22.08;;;3.00;99.90;;;;;;4980050;28;20057;-72
2021/03/27 04:26:31;;;;;;;33.65;20.58;;;3.10;99.90;;;;;;4978289;28;20626;-69
2021/03/27 04:29:17;;;;;;;35.75;19.85;;;3.20;99.90;;;;;;4962433;28;20129;-71
2021/03/27 04:32:11;;;;;;;35.47;19.23;;;3.20;99.90;;;;;;4980236;28;20050;-67
2021/03/27 04:34:46;;;;;;;31.85;18.88;;;3.20;99.90;;;;;;4978726;28;20052;-71
2021/03/27 04:37:30;;;;;;;38.08;21.60;;;3.30;99.90;;;;;;4978302;28;20046;-64
2021/03/27 04:40:09;;;;;;;31.17;17.45;;;3.30;99.90;;;;;;4975490;28;20061;-68
2021/03/27 04:42:53;;;;;;;33.92;19.15;;;3.40;99.90;;;;;;4978865;28;20093;-68
2021/03/27 04:45:36;;;;;;;29.35;18.10;;;3.50;99.90;;;;;;4979460;28;20078;-65
2021/03/27 04:48:16;;;;;;;33.42;18.10;;;3.50;99.90;;;;;;4976441;28;20046;-66
2021/03/27 04:51:27;;;;;;;33.90;20.52;;;3.50;99.90;;;;;;4979088;28;20058;-68
2021/03/27 04:54:11;;;;;;;36.72;20.65;;;3.60;99.90;;;;;;4976282;28;20046;-65
2021/03/27 04:56:44;;;;;;;35.42;21.48;;;3.60;99.90;;;;;;4974375;28;20473;-68
2021/03/27 04:59:33;;;;;;;38.05;21.40;;;3.60;99.90;;;;;;4979083;28;20352;-65
2021/03/27 05:02:10;;;;;;;32.10;20.63;;;3.60;99.90;;;;;;4976231;28;20054;-67
2021/03/27 05:04:56;;;;;;;41.75;20.42;;;3.60;99.90;;;;;;4979783;28;20153;-64
2021/03/27 05:07:45;;;;;;;45.65;21.20;;;3.60;99.90;;;;;;4976161;28;20050;-66
2021/03/27 05:10:26;;;;;;;35.83;17.88;;;3.60;99.90;;;;;;4976004;28;20527;-72
2021/03/27 05:13:22;;;;;;;31.60;18.30;;;3.70;99.90;;;;;;4976902;28;20208;-70
2021/03/27 05:15:59;;;;;;;40.45;19.17;;;3.80;99.90;;;;;;4967762;28;20046;-64
2021/03/27 05:18:34;;;;;;;27.65;17.65;;;3.80;99.90;;;;;;4976843;28;20054;-69
2021/03/27 05:21:35;;;;;;;29.80;18.15;;;3.90;99.90;;;;;;4980927;28;20038;-67
2021/03/27 05:24:27;;;;;;;31.30;18.52;;;3.90;99.90;;;;;;4974950;28;20650;-66
2021/03/27 05:27:15;;;;;;;32.85;18.58;;;4.00;99.90;;;;;;4979712;28;20050;-66
2021/03/27 05:30:05;;;;;;;29.80;17.63;;;4.00;99.90;;;;;;4976202;28;20125;-71
2021/03/27 05:32:59;;;;;;;33.85;17.73;;;4.10;99.90;;;;;;4978447;28;20109;-67
2021/03/27 05:35:54;;;;;;;30.58;16.08;;;4.20;99.90;;;;;;4976928;28;20105;-64
2021/03/27 05:38:38;;;;;;;28.58;17.38;;;4.20;99.90;;;;;;4976502;28;20046;-68
2021/03/27 05:41:10;;;;;;;28.40;17.02;;;4.30;99.90;;;;;;4976580;28;20132;-67
2021/03/27 05:43:52;;;;;;;30.50;16.48;;;4.40;99.90;;;;;;4977663;28;21502;-67
2021/03/27 05:46:27;;;;;;;33.47;18.83;;;4.40;99.90;;;;;;4975138;28;20485;-67
2021/03/27 05:49:34;;;;;;;25.85;15.73;;;4.50;99.90;;;;;;4976944;28;20492;-64
2021/03/27 05:52:18;;;;;;;36.55;19.45;;;4.50;99.90;;;;;;4976589;28;20050;-72
2021/03/27 05:54:57;;;;;;;28.27;17.02;;;4.60;99.90;;;;;;4976122;28;20554;-65
2021/03/27 05:57:34;;;;;;;34.60;19.27;;;4.60;99.90;;;;;;4977253;28;20125;-64
2021/03/27 06:00:44;;;;;;;34.22;17.95;;;4.60;99.90;;;;;;4976408;28;20089;-64
2021/03/27 06:03:36;;;;;;;28.90;16.35;;;4.70;99.90;;;;;;4977324;28;21019;-65
2021/03/27 06:06:21;;;;;;;34.58;19.70;;;4.80;99.90;;;;;;4975243;28;20129;-64
2021/03/27 06:09:01;;;;;;;29.60;16.40;;;4.80;99.90;;;;;;4978512;28;20057;-70
2021/03/27 06:11:44;;;;;;;32.65;18.27;;;4.90;99.90;;;;;;4976607;28;20077;-67
2021/03/27 06:14:11;;;;;;;34.53;18.98;;;4.90;99.90;;;;;;4977133;28;20054;-63
2021/03/27 06:16:44;;;;;;;31.80;18.27;;;4.90;99.90;;;;;;4977594;28;20440;-67
2021/03/27 06:19:14;;;;;;;31.83;18.88;;;5.00;99.90;;;;;;4977555;28;20046;-63
2021/03/27 06:22:16;;;;;;;33.28;19.00;;;5.00;99.90;;;;;;4975833;28;20058;-67
2021/03/27 06:24:52;;;;;;;35.55;19.73;;;5.10;99.90;;;;;;4982728;28;20150;-73
2021/03/27 06:27:38;;;;;;;36.40;20.10;;;5.10;99.90;;;;;;4978384;28;20058;-69
2021/03/27 06:30:29;;;;;;;32.72;19.08;;;5.20;99.90;;;;;;4978470;28;20055;-64
2021/03/27 06:33:30;;;;;;;31.55;19.77;;;5.30;99.90;;;;;;4981393;28;20408;-66
2021/03/27 06:36:04;;;;;;;32.80;17.52;;;5.40;99.90;;;;;;4979918;28;20077;-73
2021/03/27 06:39:05;;;;;;;26.10;17.95;;;5.50;99.90;;;;;;4981087;28;20117;-63
2021/03/27 06:41:31;;;;;;;28.83;17.27;;;5.50;99.90;;;;;;4977924;28;20062;-68
2021/03/27 06:44:28;;;;;;;32.08;18.13;;;5.60;99.90;;;;;;4981367;28;20081;-70
2021/03/27 06:47:31;;;;;;;37.80;16.17;;;5.70;99.90;;;;;;4981438;28;20046;-65
2021/03/27 06:50:28;;;;;;;30.20;18.02;;;5.80;99.90;;;;;;4978519;28;20050;-68
2021/03/27 06:53:09;;;;;;;29.40;16.38;;;5.90;99.90;;;;;;4980060;28;20051;-69
2021/03/27 06:55:54;;;;;;;26.42;16.33;;;6.00;99.90;;;;;;4980461;28;20054;-65
2021/03/27 06:58:42;;;;;;;28.33;15.05;;;6.10;99.90;;;;;;4978926;28;20073;-64
2021/03/27 07:01:41;;;;;;;32.10;16.90;;;6.30;99.90;;;;;;4982104;28;20042;-70
2021/03/27 07:04:26;;;;;;;31.65;16.38;;;6.30;99.90;;;;;;4978660;28;20120;-70
2021/03/27 07:07:11;;;;;;;25.63;16.45;;;6.50;99.90;;;;;;4981512;28;20196;-66
2021/03/27 07:10:02;;;;;;;28.52;16.75;;;6.60;99.90;;;;;;4981707;28;20058;-67
2021/03/27 07:12:37;;;;;;;29.95;16.48;;;6.70;99.90;;;;;;4978863;28;20051;-64
2021/03/27 07:15:18;;;;;;;33.47;20.23;;;6.70;99.90;;;;;;4978936;28;20058;-72
2021/03/27 07:18:02;;;;;;;27.55;18.48;;;6.70;99.90;;;;;;4983508;28;20061;-64
2021/03/27 07:21:05;;;;;;;29.73;17.85;;;6.70;99.90;;;;;;4984131;28;20050;-75
2021/03/27 07:23:41;;;;;;;34.15;19.48;;;6.80;99.90;;;;;;4963079;28;20108;-67
2021/03/27 07:26:35;;;;;;;45.83;24.52;;;6.80;99.90;;;;;;4977232;28;20074;-69
2021/03/27 07:29:02;;;;;;;40.20;20.70;;;6.80;99.90;;;;;;4978126;28;20042;-65
2021/03/27 07:31:28;;;;;;;47.20;24.65;;;6.70;99.90;;;;;;4979066;28;20077;-70
2021/03/27 07:33:57;;;;;;;38.28;26.23;;;6.80;99.90;;;;;;4978433;28;21089;-71
2021/03/27 07:37:00;;;;;;;44.75;25.35;;;6.90;99.90;;;;;;4975276;28;20645;-64
2021/03/27 07:39:50;;;;;;;41.80;24.45;;;7.00;99.90;;;;;;4978840;28;20061;-64
2021/03/27 07:42:34;;;;;;;41.80;25.80;;;7.20;99.90;;;;;;4975753;28;20080;-66
2021/03/27 07:45:10;;;;;;;41.80;25.30;;;7.30;99.90;;;;;;4978870;28;20042;-70
2021/03/27 07:47:58;;;;;;;38.42;23.80;;;7.40;99.90;;;;;;4978811;28;20132;-69
2021/03/27 07:50:49;;;;;;;41.05;26.58;;;7.40;99.90;;;;;;4976801;28;20050;-67
2021/03/27 07:53:53;;;;;;;38.70;24.35;;;7.50;99.90;;;;;;4979039;28;20057;-64
2021/03/27 07:56:47;;;;;;;46.65;29.65;;;7.60;99.90;;;;;;4975370;28;20050;-65
2021/03/27 07:59:40;;;;;;;63.80;34.22;;;7.70;99.90;;;;;;4977970;28;20046;-74
2021/03/27 08:02:35;;;;;;;54.20;31.65;;;7.90;99.90;;;;;;4976111;28;20058;-68
2021/03/27 08:05:32;;;;;;;55.13;35.40;;;8.10;99.90;;;;;;4996089;28;20364;-64
2021/03/27 08:08:08;;;;;;;52.65;31.80;;;8.30;99.90;;;;;;4973961;28;20400;-72
2021/03/27 08:10:56;;;;;;;56.13;37.58;;;8.40;99.90;;;;;;4978877;28;20683;-70
2021/03/27 08:13:37;;;;;;;58.20;38.00;;;8.50;99.90;;;;;;5007747;28;20527;-68
2021/03/27 08:16:19;;;;;;;;;;;8.50;99.90;;;;;;4977615;28;20069;-64
2021/03/27 08:19:24;;;;;;;69.78;45.55;;;8.50;99.90;;;;;;4978012;28;19928;-65
2021/03/27 08:22:02;;;;;;;66.63;42.38;;;8.50;99.90;;;;;;4978776;28;20172;-69
2021/03/27 08:24:36;;;;;;;70.85;44.78;;;8.70;99.90;;;;;;4974733;28;20054;-67
2021/03/27 08:27:41;;;;;;;72.32;47.08;;;8.70;99.90;;;;;;4979220;28;20073;-67
2021/03/27 08:30:45;;;;;;;76.35;49.70;;;8.80;99.90;;;;;;4976241;28;20142;-70
2021/03/27 08:33:21;;;;;;;77.38;48.33;;;8.90;99.90;;;;;;5007820;28;20038;-64
2021/03/27 08:36:11;;;;;;;80.10;51.42;;;9.10;99.90;;;;;;4976961;28;20046;-66
2021/03/27 08:38:56;;;;;;;76.95;49.53;;;9.20;99.90;;;;;;4978800;28;20043;-64
2021/03/27 08:41:47;;;;;;;75.97;49.03;;;9.30;99.90;;;;;;4977230;28;20050;-64
2021/03/27 08:44:32;;;;;;;74.75;48.15;;;9.40;99.90;;;;;;4974806;28;20133;-73
2021/03/27 08:47:39;;;;;;;72.82;50.25;;;9.60;99.90;;;;;;4977237;28;20050;-73
2021/03/27 08:50:43;;;;;;;77.93;48.22;;;9.70;99.90;;;;;;4975052;28;20050;-65
2021/03/27 08:53:54;;;;;;;80.20;50.50;;;9.80;99.90;;;;;;4978209;28;20077;-70
2021/03/27 08:56:38;;;;;;;70.00;47.97;;;9.90;99.90;;;;;;4975307;28;20243;-63
2021/03/27 08:59:14;;;;;;;76.78;48.85;;;10.00;99.90;;;;;;4979860;28;20050;-65
2021/03/27 09:02:01;;;;;;;68.47;47.20;;;10.20;99.90;;;;;;4978886;28;20050;-69
2021/03/27 09:04:59;;;;;;;65.68;45.05;;;10.30;99.90;;;;;;4978611;28;20057;-65
2021/03/27 09:07:40;;;;;;;63.70;43.40;;;10.40;99.90;;;;;;4976850;28;20050;-66
2021/03/27 09:10:41;;;;;;;79.47;47.17;;;10.60;99.90;;;;;;4976686;28;20633;-73
2021/03/27 09:13:45;;;;;;;57.72;42.45;;;10.80;99.90;;;;;;4976015;28;20058;-64
2021/03/27 09:16:30;;;;;;;67.97;45.88;;;10.80;99.90;;;;;;4976186;28;20096;-75
2021/03/27 09:19:16;;;;;;;69.53;46.97;;;10.80;99.90;;;;;;4978567;28;20113;-67
2021/03/27 09:22:11;;;;;;;73.00;49.53;;;10.90;99.90;;;;;;4976268;28;20156;-64
2021/03/27 09:24:56;;;;;;;70.45;47.97;;;10.90;99.90;;;;;;4976553;28;20093;-63
2021/03/27 09:27:28;;;;;;;74.03;47.92;;;11.00;99.90;;;;;;4977524;28;20047;-65
2021/03/27 09:30:23;;;;;;;62.63;48.75;;;11.10;99.90;;;;;;4976077;28;20542;-66
2021/03/27 09:33:27;;;;;;;79.68;50.20;;;11.20;99.90;;;;;;4963734;28;20053;-66
2021/03/27 09:36:05;;;;;;;77.47;50.55;;;11.40;99.90;;;;;;4979096;28;20050;-69
2021/03/27 09:38:36;;;;;;;71.28;47.75;;;11.50;99.90;;;;;;4976048;28;21538;-64
2021/03/27 09:41:23;;;;;;;67.85;48.40;;;11.50;99.90;;;;;;4978526;28;20081;-65
2021/03/27 09:44:11;;;;;;;75.93;49.72;;;11.50;99.90;;;;;;4974002;28;20062;-64
2021/03/27 09:47:01;;;;;;;76.10;48.83;;;11.60;99.90;;;;;;4976900;28;20047;-64
2021/03/27 09:50:04;;;;;;;72.90;48.15;;;11.70;99.90;;;;;;4976213;28;20050;-63
2021/03/27 09:52:56;;;;;;;73.85;50.58;;;11.80;99.90;;;;;;4978379;28;20124;-68
2021/03/27 09:55:37;;;;;;;80.35;51.30;;;11.90;99.90;;;;;;4978329;28;20054;-65
2021/03/27 09:58:32;;;;;;;95.57;58.95;;;11.90;99.90;;;;;;4980786;28;20063;-64
2021/03/27 10:01:11;;;;;;;85.25;54.05;;;11.70;99.90;;;;;;4981687;28;20038;-63
2021/03/27 10:03:51;;;;;;;80.18;53.25;;;11.60;99.90;;;;;;4981877;28;20046;-63
2021/03/27 10:06:55;;;;;;;82.00;53.08;;;11.70;99.90;;;;;;4979976;28;20054;-65
2021/03/27 10:09:55;;;;;;;87.40;54.83;;;11.60;99.90;;;;;;4980519;28;20050;-64
2021/03/27 10:12:27;;;;;;;92.78;56.30;;;11.70;99.90;;;;;;4978913;28;20051;-70
2021/03/27 10:15:17;;;;;;;76.72;52.60;;;11.80;99.90;;;;;;4981935;28;20050;-67
2021/03/27 10:17:50;;;;;;;84.20;56.25;;;11.70;99.90;;;;;;4983804;28;20077;-63
2021/03/27 10:20:23;;;;;;;80.38;54.10;;;11.70;99.90;;;;;;4975852;28;20050;-70
2021/03/27 10:23:04;;;;;;;80.32;55.40;;;11.80;99.90;;;;;;4982641;28;20050;-70
2021/03/27 10:25:39;;;;;;;79.25;54.67;;;11.70;99.90;;;;;;4982344;28;20069;-71
2021/03/27 10:28:21;;;;;;;80.85;54.53;;;11.80;99.90;;;;;;4979505;28;20050;-66
2021/03/27 10:31:01;;;;;;;81.82;55.90;;;11.90;99.90;;;;;;4980179;28;20108;-67
2021/03/27 10:33:33;;;;;;;;;;;11.90;99.90;;;;;;4981889;28;20064;-64
2021/03/27 10:36:29;;;;;;;86.13;55.63;;;12.00;99.90;;;;;;4977561;28;19937;-66
2021/03/27 10:39:27;;;;;;;78.03;55.55;;;12.10;99.90;;;;;;4981301;28;20058;-67
2021/03/27 10:42:24;;;;;;;78.22;50.53;;;12.20;99.90;;;;;;4980639;28;20780;-66
2021/03/27 10:45:09;;;;;;;79.30;53.17;;;12.20;99.90;;;;;;4979601;28;20077;-65
2021/03/27 10:48:03;;;;;;;74.93;52.45;;;12.30;99.90;;;;;;4980269;28;20412;-68
2021/03/27 10:51:07;;;;;;;77.43;50.83;;;12.40;99.90;;;;;;4978792;28;20061;-66
2021/03/27 10:53:46;;;;;;;74.43;50.83;;;12.40;99.90;;;;;;4980319;28;20073;-67
2021/03/27 10:56:18;;;;;;;73.25;47.63;;;12.40;99.90;;;;;;4979945;28;20108;-68
2021/03/27 10:59:07;;;;;;;72.22;47.20;;;12.20;99.90;;;;;;4980182;28;20053;-66
2021/03/27 11:02:17;;;;;;;67.18;47.10;;;12.30;99.90;;;;;;4980875;28;20046;-66
2021/03/27 11:04:43;;;;;;;68.80;47.33;;;12.40;99.90;;;;;;4980767;28;20057;-66
2021/03/27 11:07:28;;;;;;;79.10;49.90;;;12.50;99.90;;;;;;4979350;28;20104;-69
2021/03/27 11:10:18;;;;;;;70.03;48.47;;;12.50;99.90;;;;;;4976638;28;20645;-68
2021/03/27 11:13:22;;;;;;;73.13;48.28;;;12.50;99.90;;;;;;4976199;28;20144;-67
2021/03/27 11:16:26;;;;;;;65.05;45.33;;;12.40;99.90;;;;;;4976113;28;20096;-71
2021/03/27 11:18:59;;;;;;;76.80;46.90;;;12.30;99.90;;;;;;4944156;28;20660;-66
2021/03/27 11:22:02;;;;;;;71.82;45.15;;;12.40;99.90;;;;;;4977867;28;20043;-66
2021/03/27 11:25:06;;;;;;;70.00;47.40;;;12.40;99.90;;;;;;4976502;28;20841;-67
2021/03/27 11:28:08;;;;;;;76.82;47.92;;;12.60;99.90;;;;;;4981226;28;20140;-65
2021/03/27 11:30:39;;;;;;;73.43;48.70;;;12.70;99.90;;;;;;4969129;28;20046;-66
2021/03/27 11:33:30;;;;;;;61.10;44.63;;;12.80;99.90;;;;;;4983887;28;20420;-66
2021/03/27 11:36:17;;;;;;;;;;;13.00;99.90;;;;;;4978808;28;20077;-69
2021/03/27 11:38:45;;;;;;;62.70;42.85;;;13.00;99.90;;;;;;4983189;28;20532;-70
2021/03/27 11:41:48;;;;;;;64.93;45.33;;;13.20;99.90;;;;;;4980819;28;20570;-64
2021/03/27 11:44:23;;;;;;;65.47;45.55;;;13.10;99.90;;;;;;4981256;28;20157;-64
2021/03/27 11:47:27;;;;;;;69.32;46.65;;;13.20;99.90;;;;;;4983001;28;20050;-66
2021/03/27 11:50:16;;;;;;;57.55;42.40;;;13.40;99.90;;;;;;4976543;28;20126;-68
2021/03/27 11:52:55;;;;;;;60.97;45.70;;;13.50;99.90;;;;;;4982959;28;20773;-64
2021/03/27 11:55:25;;;;;;;63.63;44.25;;;13.50;99.90;;;;;;4980206;28;20097;-64
2021/03/27 11:58:23;;;;;;;64.13;45.72;;;13.50;99.90;;;;;;4983217;28;20042;-68
2021/03/27 12:01:03;;;;;;;69.97;44.13;;;13.70;99.90;;;;;;4977523;28;20104;-67
2021/03/27 12:03:52;;;;;;;62.28;41.80;;;13.90;99.90;;;;;;4980464;28;20457;-64
2021/03/27 12:06:21;;;;;;;61.03;44.35;;;13.80;99.90;;;;;;4976371;28;20058;-64
2021/03/27 12:08:50;;;;;;;63.40;42.38;;;13.70;99.90;;;;;;4980272;28;20074;-71
2021/03/27 12:11:42;;;;;;;67.18;44.72;;;13.70;99.90;;;;;;4980435;28;20051;-68
2021/03/27 12:14:34;;;;;;;62.95;44.58;;;13.70;99.90;;;;;;4981713;28;20042;-67
2021/03/27 12:17:25;;;;;;;67.05;42.90;;;13.80;99.90;;;;;;4975331;28;20046;-64
2021/03/27 12:19:58;;;;;;;59.22;42.55;;;14.00;99.90;;;;;;4979390;28;20058;-63
2021/03/27 12:22:35;;;;;;;60.53;39.25;;;14.20;99.90;;;;;;4978156;28;20088;-66
2021/03/27 12:25:21;;;;;;;60.63;42.85;;;14.50;99.90;;;;;;4982986;28;20046;-64
2021/03/27 12:28:15;;;;;;;67.10;45.45;;;14.50;99.90;;;;;;4979908;28;20081;-62
2021/03/27 12:31:17;;;;;;;71.63;48.95;;;14.60;99.90;;;;;;4975455;28;20046;-62
2021/03/27 12:34:03;;;;;;;62.88;45.20;;;14.50;99.90;;;;;;4979714;28;20051;-65
2021/03/27 12:37:06;;;;;;;63.38;43.10;;;14.60;99.90;;;;;;4978995;28;20105;-65
2021/03/27 12:39:55;;;;;;;65.05;42.70;;;14.70;99.90;;;;;;4976893;28;20045;-64
2021/03/27 12:42:41;;;;;;;61.55;41.63;;;14.90;99.90;;;;;;4979791;28;20212;-64
2021/03/27 12:45:18;;;;;;;58.63;41.70;;;14.80;99.90;;;;;;4978011;28;20105;-65
2021/03/27 12:47:53;;;;;;;65.47;43.85;;;14.70;99.90;;;;;;4979577;28;20484;-68
2021/03/27 12:50:55;;;;;;;54.28;40.88;;;14.80;99.90;;;;;;4978114;28;20420;-66
2021/03/27 12:53:39;;;;;;;59.80;41.30;;;14.80;99.90;;;;;;4979285;28;20055;-63
2021/03/27 12:56:12;;;;;;;51.53;36.10;;;14.90;99.90;;;;;;4978276;28;20175;-65
2021/03/27 12:58:49;;;;;;;51.17;40.80;;;14.90;99.90;;;;;;4977597;28;20120;-63
2021/03/27 13:01:37;;;;;;;54.95;39.05;;;14.80;99.90;;;;;;4979696;28;20120;-66
2021/03/27 13:04:23;;;;;;;59.38;38.92;;;14.70;99.90;;;;;;4977868;28;20451;-65
2021/03/27 13:07:15;;;;;;;54.63;37.53;;;14.70;99.90;;;;;;4981548;28;20046;-66
2021/03/27 13:10:00;;;;;;;52.95;37.78;;;14.70;99.90;;;;;;4975542;28;20488;-64
2021/03/27 13:12:55;;;;;;;60.90;39.83;;;14.70;99.90;;;;;;4979049;28;20054;-71
2021/03/27 13:16:00;;;;;;;63.38;40.47;;;14.90;99.90;;;;;;4978184;28;20054;-64
2021/03/27 13:18:39;;;;;;;63.83;42.53;;;14.80;99.90;;;;;;4977905;28;20082;-71
2021/03/27 13:21:13;;;;;;;67.38;42.45;;;14.90;99.90;;;;;;4980865;28;20488;-65
2021/03/27 13:23:48;;;;;;;62.80;42.75;;;14.90;99.90;;;;;;4977964;28;20098;-63
2021/03/27 13:26:29;;;;;;;70.25;40.53;;;14.90;99.90;;;;;;4978946;28;20109;-64
2021/03/27 13:29:35;;;;;;;62.42;43.20;;;14.80;99.90;;;;;;4975836;28;20061;-64
2021/03/27 13:32:17;;;;;;;61.22;42.40;;;14.60;99.90;;;;;;4976149;28;20054;-70
2021/03/27 13:35:04;;;;;;;59.08;41.03;;;14.50;99.90;;;;;;4978044;28;20045;-61
2021/03/27 13:37:53;;;;;;;59.33;42.33;;;14.40;99.90;;;;;;4981114;28;20120;-67
2021/03/27 13:40:24;;;;;;;66.82;40.78;;;14.30;99.90;;;;;;4974480;28;20054;-66
2021/03/27 13:43:16;;;;;;;60.75;40.40;;;14.20;99.90;;;;;;4975071;28;21159;-62
2021/03/27 13:45:48;;;;;;;66.72;40.60;;;14.20;99.90;;;;;;4976911;28;20109;-61
2021/03/27 13:48:30;;;;;;;64.65;42.25;;;14.10;99.90;;;;;;4975937;28;20509;-62
2021/03/27 13:51:11;;;;;;;58.05;38.42;;;14.10;99.90;;;;;;4978713;28;20403;-63
2021/03/27 13:54:03;;;;;;;72.68;43.47;;;13.90;99.90;;;;;;4977163;28;20152;-66
2021/03/27 13:56:50;;;;;;;63.55;41.63;;;13.70;99.90;;;;;;4976127;28;20050;-67
2021/03/27 13:59:19;;;;;;;62.65;42.30;;;13.30;99.90;;;;;;4978565;28;20051;-62
2021/03/27 14:02:24;;;;;;;63.72;42.53;;;13.10;99.90;;;;;;4980184;28;20057;-61
2021/03/27 14:05:24;;;;;;;65.20;41.10;;;12.90;99.90;;;;;;4976923;28;20054;-65
2021/03/27 14:08:21;;;;;;;62.13;42.72;;;12.50;99.90;;;;;;4979088;28;20109;-64